createdAt,value
2023-01-03T05:00:18.030Z,100668.10
2023-01-03T05:02:49.602Z,100674.04
2023-01-03T05:05:18.791Z,100673.70
2023-01-03T05:07:47.750Z,100675.30
2023-01-03T05:10:16.417Z,100679.34
2023-01-03T05:13:00.103Z,100680.40
2023-01-03T05:15:37.787Z,100685.52
2023-01-03T05:18:08.160Z,100685.99
2023-01-03T05:20:58.144Z,100687.33
2023-01-03T05:23:45.759Z,100689.48
2023-01-03T05:26:16.507Z,100692.41
2023-01-03T05:28:48.592Z,100692.67
2023-01-03T05:31:16.914Z,100695.47
2023-01-03T05:33:45.964Z,100698.88
2023-01-03T05:36:16.600Z,100700.63
2023-01-03T05:38:46.122Z,100705.61
2023-01-03T05:41:35.697Z,100706.76
2023-01-03T05:44:05.089Z,100710.43
2023-01-03T05:46:34.436Z,100710.89
2023-01-03T05:49:03.844Z,100712.55
2023-01-03T05:51:32.880Z,100722.52
2023-01-03T05:54:02.307Z,100726.67
2023-01-03T05:56:32.692Z,100722.58
2023-01-03T05:59:01.385Z,100725.63
2023-01-03T06:01:30.139Z,100728.65
2023-01-03T06:03:58.881Z,100727.35
2023-01-03T06:06:27.080Z,100725.73
2023-01-03T06:08:56.054Z,100732.81
2023-01-03T06:11:25.123Z,100731.20
2023-01-03T06:13:54.652Z,100735.67
2023-01-03T06:16:50.282Z,100738.71
2023-01-03T06:19:19.637Z,100738.84
2023-01-03T06:21:48.923Z,100737.05
2023-01-03T06:24:18.307Z,100736.90
2023-01-03T06:26:47.785Z,100749.41
2023-01-03T06:29:19.561Z,100755.14
2023-01-03T06:31:48.675Z,100757.65
2023-01-03T06:34:17.561Z,100758.81
2023-01-03T06:36:46.703Z,100766.67
2023-01-03T06:39:15.188Z,100768.34
2023-01-03T06:41:43.985Z,100770.42
2023-01-03T06:44:13.096Z,100779.31
2023-01-03T06:47:00.715Z,100784.33
2023-01-03T06:50:08.356Z,100796.02
2023-01-03T06:52:56.221Z,100800.02
2023-01-03T06:55:25.578Z,100809.64
2023-01-03T06:57:54.901Z,100815.89
2023-01-03T07:00:24.314Z,100819.55
2023-01-03T07:02:54.203Z,100823.19
2023-01-03T07:05:22.989Z,100822.16
2023-01-03T07:07:52.309Z,100826.94
2023-01-03T07:10:21.530Z,100827.94
2023-01-03T07:13:09.857Z,100825.95
2023-01-03T07:15:44.358Z,100832.84
2023-01-03T07:18:14.101Z,100835.27
2023-01-03T07:20:44.269Z,100837.16
2023-01-03T07:23:16.840Z,100844.20
2023-01-03T07:25:48.223Z,100849.70
2023-01-03T07:28:17.814Z,100853.04
2023-01-03T07:30:47.054Z,100858.20
2023-01-03T07:33:17.575Z,100859.98
2023-01-03T07:35:46.582Z,100864.70
2023-01-03T07:38:15.239Z,100861.05
2023-01-03T07:40:45.202Z,100865.36
2023-01-03T07:43:32.848Z,100864.77
2023-01-03T07:46:12.070Z,100867.98
2023-01-03T07:48:42.161Z,100877.11
2023-01-03T07:51:15.933Z,100877.23
2023-01-03T07:53:45.786Z,100884.86
2023-01-03T07:56:17.239Z,100885.08
2023-01-03T07:58:47.990Z,100892.48
2023-01-03T08:01:19.706Z,100894.86
2023-01-03T08:03:49.187Z,100893.38
2023-01-03T08:06:22.881Z,100890.17
2023-01-03T08:09:11.100Z,100893.17
2023-01-03T08:11:59.308Z,100901.29
2023-01-03T08:14:29.144Z,100905.58
2023-01-03T08:16:57.658Z,100911.17
2023-01-03T08:19:27.108Z,100915.48
2023-01-03T08:21:55.695Z,100919.90
2023-01-03T08:24:24.019Z,100924.64
2023-01-03T08:26:52.293Z,100928.18
2023-01-03T08:29:20.813Z,100931.27
2023-01-03T08:31:55.923Z,100934.99
2023-01-03T08:34:30.558Z,100937.55
2023-01-03T08:37:03.542Z,100940.36
2023-01-03T08:39:43.702Z,100938.41
2023-01-03T08:42:15.857Z,100940.50
2023-01-03T08:44:45.391Z,100937.80
2023-01-03T08:47:15.692Z,100934.60
2023-01-03T08:49:44.065Z,100937.36
2023-01-03T08:52:12.221Z,100938.71
2023-01-03T08:54:41.067Z,100936.46
2023-01-03T08:57:09.682Z,100940.87
2023-01-03T08:59:37.890Z,100936.09
2023-01-03T09:02:06.957Z,100938.65
2023-01-03T09:04:35.272Z,100943.05
2023-01-03T09:07:03.366Z,100939.42
2023-01-03T09:09:32.035Z,100939.92
2023-01-03T09:12:00.269Z,100941.41
2023-01-03T09:14:30.751Z,100942.63
2023-01-03T09:16:59.155Z,100943.61
2023-01-03T09:19:27.743Z,100941.70
2023-01-03T09:21:56.077Z,100949.58
2023-01-03T09:24:24.213Z,100951.95
2023-01-03T09:26:55.290Z,100961.77
2023-01-03T09:29:24.347Z,100961.79
2023-01-03T09:31:53.448Z,100967.98
2023-01-03T09:34:22.398Z,100969.09
2023-01-03T09:36:50.610Z,100967.64
2023-01-03T09:39:19.001Z,100968.77
2023-01-03T09:42:07.827Z,100974.59
2023-01-03T09:44:36.082Z,100975.89
2023-01-03T09:47:05.225Z,100972.48
2023-01-03T09:49:51.880Z,100970.24
2023-01-03T09:52:50.870Z,100972.05
2023-01-03T09:55:46.066Z,100977.65
2023-01-03T09:58:54.726Z,100974.67
2023-01-03T10:01:56.464Z,100980.94
2023-01-03T10:04:49.685Z,100982.08
2023-01-03T10:07:24.747Z,100980.63
2023-01-03T10:10:14.800Z,100985.16
2023-01-03T10:13:20.345Z,100988.40
2023-01-03T10:16:08.420Z,100989.23
2023-01-03T10:19:02.346Z,100992.70
2023-01-03T10:21:46.341Z,100993.38
2023-01-03T10:24:21.502Z,100995.05
2023-01-03T10:27:18.610Z,100997.14
2023-01-03T10:29:54.557Z,101001.98
2023-01-03T10:32:49.988Z,101000.23
2023-01-03T10:35:24.955Z,101001.52
2023-01-03T10:37:55.886Z,101005.87
2023-01-03T10:40:39.815Z,101006.69
2023-01-03T10:43:16.719Z,101007.19
2023-01-03T10:46:07.740Z,101012.14
2023-01-03T10:49:17.005Z,101008.55
2023-01-03T10:51:43.075Z,101002.92
2023-01-03T10:54:36.841Z,101001.05
2023-01-03T10:57:05.786Z,101005.16
2023-01-03T10:59:37.874Z,101009.33
2023-01-03T11:02:09.511Z,101015.06
2023-01-03T11:04:39.113Z,101017.44
2023-01-03T11:07:12.591Z,101020.16
2023-01-03T11:09:48.848Z,101022.45
2023-01-03T11:12:40.717Z,101021.11
2023-01-03T11:15:38.195Z,101017.98
2023-01-03T11:18:23.485Z,101019.63
2023-01-03T11:20:55.682Z,101025.95
2023-01-03T11:24:06.421Z,101021.27
2023-01-03T11:27:01.079Z,101022.48
2023-01-03T11:29:56.724Z,101025.08
2023-01-03T11:32:52.562Z,101027.66
2023-01-03T11:35:54.771Z,101027.16
2023-01-03T11:38:46.666Z,101031.33
2023-01-03T11:41:36.489Z,101038.52
2023-01-03T11:44:14.250Z,101038.39
2023-01-03T11:47:10.243Z,101038.48
2023-01-03T11:50:03.937Z,101039.05
2023-01-03T11:52:48.269Z,101037.52
2023-01-03T11:55:51.303Z,101039.83
2023-01-03T11:58:37.706Z,101040.96
2023-01-03T12:01:18.904Z,101039.04
2023-01-03T12:04:14.075Z,101038.52
2023-01-03T12:07:37.469Z,101036.57
2023-01-03T12:10:33.594Z,101035.62
2023-01-03T12:13:29.099Z,101034.10
2023-01-03T12:16:16.525Z,101030.71
2023-01-03T12:18:56.047Z,101035.31
2023-01-03T12:21:40.396Z,101033.41
2023-01-03T12:24:39.672Z,101027.09
2023-01-03T12:27:17.785Z,101030.64
2023-01-03T12:29:59.649Z,101032.55
2023-01-03T12:32:47.650Z,101030.80
2023-01-03T12:35:39.654Z,101030.73
2023-01-03T12:38:10.673Z,101035.77
2023-01-03T12:41:02.584Z,101036.44
2023-01-03T12:43:43.233Z,101038.77
2023-01-03T12:46:24.352Z,101043.16
2023-01-03T12:49:16.175Z,101043.95
2023-01-03T12:51:45.462Z,101045.13
2023-01-03T12:54:14.570Z,101044.27
2023-01-03T12:56:56.145Z,101045.67
2023-01-03T12:59:51.667Z,101046.78
2023-01-03T13:02:48.370Z,101045.66
2023-01-03T13:05:20.607Z,101048.01
2023-01-03T13:08:19.815Z,101053.34
2023-01-03T13:10:53.105Z,101053.92
2023-01-03T13:13:22.714Z,101054.81
2023-01-03T13:15:53.793Z,101059.01
2023-01-03T13:18:23.031Z,101058.23
2023-01-03T13:20:54.217Z,101062.31
2023-01-03T13:23:29.405Z,101061.70
2023-01-03T13:26:21.443Z,101065.09
2023-01-03T13:28:52.287Z,101068.27
2023-01-03T13:31:22.101Z,101068.59
2023-01-03T13:34:11.169Z,101067.42
2023-01-03T13:37:08.243Z,101065.76
2023-01-03T13:39:52.840Z,101068.08
2023-01-03T13:42:32.174Z,101073.54
2023-01-03T13:45:16.661Z,101074.99
2023-01-03T13:47:48.012Z,101074.20
2023-01-03T13:50:30.577Z,101079.90
2023-01-03T13:53:12.570Z,101076.84
2023-01-03T13:55:54.589Z,101075.45
2023-01-03T13:58:53.883Z,101075.25
2023-01-03T14:01:41.908Z,101081.65
2023-01-03T14:04:28.253Z,101086.71
2023-01-03T14:07:16.133Z,101086.08
2023-01-03T14:09:51.134Z,101084.56
2023-01-03T14:12:52.727Z,101091.60
2023-01-03T14:15:26.939Z,101098.27
2023-01-03T14:18:00.448Z,101100.07
2023-01-03T14:20:34.219Z,101105.20
2023-01-03T14:23:23.797Z,101109.22
2023-01-03T14:25:55.412Z,101110.14
2023-01-03T14:28:26.220Z,101109.98
2023-01-03T14:31:07.197Z,101109.01
2023-01-03T14:33:43.094Z,101110.77
2023-01-03T14:36:16.849Z,101110.25
2023-01-03T14:38:54.219Z,101113.77
2023-01-03T14:41:31.245Z,101112.38
2023-01-03T14:44:19.718Z,101113.45
2023-01-03T14:47:07.248Z,101105.25
2023-01-03T14:49:47.326Z,101107.64
2023-01-03T14:52:37.994Z,101112.46
2023-01-03T14:55:09.852Z,101114.21
2023-01-03T14:57:40.216Z,101115.65
2023-01-03T15:00:16.446Z,101116.41
2023-01-03T15:02:46.612Z,101118.27
2023-01-03T15:05:51.869Z,101121.33
2023-01-03T15:08:32.117Z,101124.55
2023-01-03T15:11:08.490Z,101121.58
2023-01-03T15:13:39.110Z,101122.38
2023-01-03T15:16:31.187Z,101125.33
2023-01-03T15:19:20.887Z,101129.13
2023-01-03T15:21:49.424Z,101128.95
2023-01-03T15:24:23.554Z,101133.87
2023-01-03T15:26:53.858Z,101133.45
2023-01-03T15:29:24.747Z,101136.65
2023-01-03T15:31:55.821Z,101141.36
2023-01-03T15:34:37.116Z,101136.52
2023-01-03T15:37:14.263Z,101141.02
2023-01-03T15:39:53.885Z,101138.35
2023-01-03T15:42:47.784Z,101140.16
2023-01-03T15:45:25.255Z,101138.30
2023-01-03T15:47:58.608Z,101142.75
2023-01-03T15:50:51.453Z,101144.38
2023-01-03T15:53:22.858Z,101150.61
2023-01-03T15:55:59.620Z,101156.66
2023-01-03T15:58:29.883Z,101159.28
2023-01-03T16:00:59.874Z,101159.05
2023-01-03T16:03:31.495Z,101159.31
2023-01-03T16:06:00.135Z,101157.63
2023-01-03T16:08:30.247Z,101159.01
2023-01-03T16:11:04.482Z,101160.45
2023-01-03T16:13:42.415Z,101159.86
2023-01-03T16:16:12.514Z,101160.42
2023-01-03T16:18:52.291Z,101156.02
2023-01-03T16:21:22.284Z,101162.25
2023-01-03T16:23:51.582Z,101156.95
2023-01-03T16:26:21.084Z,101158.70
2023-01-03T16:28:50.062Z,101160.74
2023-01-03T16:31:26.673Z,101160.95
2023-01-03T16:33:56.081Z,101158.41
2023-01-03T16:36:40.160Z,101161.05
2023-01-03T16:39:14.542Z,101162.83
2023-01-03T16:41:44.575Z,101162.66
2023-01-03T16:44:13.563Z,101160.33
2023-01-03T16:46:41.806Z,101163.79
2023-01-03T16:49:11.470Z,101160.91
2023-01-03T16:51:46.764Z,101165.20
2023-01-03T16:54:21.449Z,101163.55
2023-01-03T16:56:50.685Z,101163.66
2023-01-03T16:59:21.839Z,101162.74
2023-01-03T17:01:50.574Z,101162.21
2023-01-03T17:04:19.160Z,101162.53
2023-01-03T17:06:47.816Z,101164.96
2023-01-03T17:09:23.593Z,101165.83
2023-01-03T17:11:55.392Z,101167.67
2023-01-03T17:14:24.193Z,101169.59
2023-01-03T17:16:52.999Z,101173.18
2023-01-03T17:20:02.880Z,101177.83
2023-01-03T17:22:21.432Z,101181.04
2023-01-03T17:24:52.604Z,101183.08
2023-01-03T17:27:31.864Z,101185.46
2023-01-03T17:30:04.572Z,101186.86
2023-01-03T17:32:34.324Z,101187.67
2023-01-03T17:35:05.292Z,101188.86
2023-01-03T17:37:57.825Z,101195.95
2023-01-03T17:40:33.196Z,101195.63
2023-01-03T17:43:03.280Z,101196.45
2023-01-03T17:45:50.521Z,101201.10
2023-01-03T17:48:37.668Z,101200.61
2023-01-03T17:51:06.603Z,101204.41
2023-01-03T17:53:35.204Z,101211.82
2023-01-03T17:56:03.994Z,101209.89
2023-01-03T17:58:37.132Z,101213.08
2023-01-03T18:01:08.490Z,101218.05
2023-01-03T18:03:38.852Z,101216.62
2023-01-03T18:06:21.102Z,101221.67
2023-01-03T18:08:50.598Z,101221.84
2023-01-03T18:11:21.118Z,101220.73
2023-01-03T18:13:49.987Z,101221.12
2023-01-03T18:16:21.692Z,101225.02
2023-01-03T18:18:51.154Z,101228.86
2023-01-03T18:21:28.108Z,101227.48
2023-01-03T18:24:07.059Z,101227.55
2023-01-03T18:26:38.520Z,101229.22
2023-01-03T18:29:08.364Z,101229.66
2023-01-03T18:31:36.885Z,101231.38
2023-01-03T18:34:06.594Z,101229.27
2023-01-03T18:36:45.020Z,101232.59
2023-01-03T18:39:18.009Z,101239.59
2023-01-03T18:41:46.376Z,101240.31
2023-01-03T18:44:34.515Z,101238.30
2023-01-03T18:47:06.827Z,101242.59
2023-01-03T18:49:35.328Z,101241.94
2023-01-03T18:52:04.166Z,101239.71
2023-01-03T18:54:38.014Z,101238.84
2023-01-03T18:57:06.259Z,101239.91
2023-01-03T18:59:35.471Z,101241.23
2023-01-03T19:02:14.492Z,101240.00
2023-01-03T19:04:49.200Z,101245.17
2023-01-03T19:07:29.442Z,101245.76
2023-01-03T19:09:59.536Z,101247.53
2023-01-03T19:12:30.251Z,101250.73
2023-01-03T19:14:59.231Z,101252.60
2023-01-03T19:17:28.341Z,101255.30
2023-01-03T19:19:56.990Z,101254.03
2023-01-03T19:22:27.117Z,101258.05
2023-01-03T19:25:00.203Z,101259.23
2023-01-03T19:27:39.758Z,101262.92
2023-01-03T19:30:21.612Z,101262.39
2023-01-03T19:32:55.856Z,101261.95
2023-01-03T19:35:27.481Z,101262.80
2023-01-03T19:37:55.744Z,101264.70
2023-01-03T19:40:29.555Z,101267.06
2023-01-03T19:42:59.852Z,101268.83
2023-01-03T19:45:40.520Z,101272.67
2023-01-03T19:48:21.135Z,101272.36
2023-01-03T19:50:53.227Z,101271.13
2023-01-03T19:53:21.461Z,101270.71
2023-01-03T19:55:52.344Z,101269.46
2023-01-03T19:58:36.640Z,101275.38
2023-01-03T20:01:05.236Z,101277.69
2023-01-03T20:03:39.209Z,101281.77
2023-01-03T20:06:12.154Z,101280.92
2023-01-03T20:08:40.370Z,101281.75
2023-01-03T20:11:18.472Z,101284.52
2023-01-03T20:13:47.664Z,101285.66
2023-01-03T20:16:16.713Z,101286.23
2023-01-03T20:18:45.286Z,101283.23
2023-01-03T20:21:22.523Z,101284.59
2023-01-03T20:23:57.520Z,101282.19
2023-01-03T20:26:29.568Z,101283.88
2023-01-03T20:29:00.184Z,101287.42
2023-01-03T20:31:30.170Z,101290.70
2023-01-03T20:33:59.980Z,101291.70
2023-01-03T20:36:33.659Z,101297.06
2023-01-03T20:39:02.144Z,101299.80
2023-01-03T20:41:36.927Z,101297.99
2023-01-03T20:44:09.717Z,101292.25
2023-01-03T20:46:39.723Z,101296.10
2023-01-03T20:49:22.571Z,101295.27
2023-01-03T20:51:52.306Z,101301.52
2023-01-03T20:54:21.283Z,101307.02
2023-01-03T20:56:49.375Z,101311.55
2023-01-03T20:59:20.465Z,101310.46
2023-01-03T21:01:49.694Z,101305.88
2023-01-03T21:04:18.935Z,101308.34
2023-01-03T21:06:48.992Z,101313.89
2023-01-03T21:09:17.368Z,101312.00
2023-01-03T21:11:47.263Z,101313.73
2023-01-03T21:14:15.503Z,101314.48
2023-01-03T21:16:49.123Z,101310.90
2023-01-03T21:19:23.340Z,101313.59
2023-01-03T21:21:54.482Z,101307.14
2023-01-03T21:24:24.477Z,101310.27
2023-01-03T21:26:52.944Z,101308.36
2023-01-03T21:29:22.364Z,101310.54
2023-01-03T21:31:50.987Z,101308.30
2023-01-03T21:34:21.391Z,101311.90
2023-01-03T21:36:49.840Z,101314.76
2023-01-03T21:39:18.123Z,101315.73
2023-01-03T21:42:04.904Z,101315.50
2023-01-03T21:44:33.471Z,101318.91
2023-01-03T21:47:02.450Z,101324.36
2023-01-03T21:49:30.864Z,101331.58
2023-01-03T21:51:58.853Z,101333.55
2023-01-03T21:54:27.901Z,101328.90
2023-01-03T21:56:56.693Z,101329.27
2023-01-03T21:59:25.091Z,101333.02
2023-01-03T22:02:12.556Z,101331.40
2023-01-03T22:04:41.332Z,101329.23
2023-01-03T22:07:10.251Z,101328.45
2023-01-03T22:09:57.978Z,101329.05
2023-01-03T22:12:26.481Z,101328.71
2023-01-03T22:14:55.436Z,101333.25
2023-01-03T22:17:23.597Z,101335.24
2023-01-03T22:19:52.124Z,101333.70
2023-01-03T22:22:20.774Z,101337.95
2023-01-03T22:24:50.031Z,101339.33
2023-01-03T22:27:20.253Z,101342.74
2023-01-03T22:29:48.940Z,101342.36
2023-01-03T22:32:22.788Z,101343.85
2023-01-03T22:34:51.463Z,101349.80
2023-01-03T22:37:20.188Z,101351.80
2023-01-03T22:39:48.839Z,101349.48
2023-01-03T22:42:19.679Z,101350.39
2023-01-03T22:44:49.261Z,101349.39
2023-01-03T22:47:18.012Z,101352.10
2023-01-03T22:49:48.379Z,101353.91
2023-01-03T22:52:18.012Z,101358.37
2023-01-03T22:54:47.089Z,101357.98
2023-01-03T22:57:16.605Z,101353.98
2023-01-03T22:59:45.573Z,101353.46
2023-01-03T23:02:14.637Z,101355.10
2023-01-03T23:04:44.297Z,101352.21
2023-01-03T23:07:12.996Z,101356.31
2023-01-03T23:09:41.779Z,101354.50
2023-01-03T23:12:29.266Z,101359.48
2023-01-03T23:14:57.404Z,101357.90
2023-01-03T23:17:44.634Z,101365.33
2023-01-03T23:20:13.362Z,101364.27
2023-01-03T23:22:43.847Z,101364.21
2023-01-03T23:25:12.070Z,101361.52
2023-01-03T23:27:41.066Z,101363.59
2023-01-03T23:30:10.203Z,101367.34
2023-01-03T23:32:39.264Z,101365.70
2023-01-03T23:35:08.538Z,101365.98
2023-01-03T23:37:37.489Z,101365.02
2023-01-03T23:40:07.255Z,101365.77
2023-01-03T23:42:35.899Z,101360.85
2023-01-03T23:45:05.356Z,101370.35
2023-01-03T23:47:33.952Z,101370.77
2023-01-03T23:50:02.810Z,101376.48
2023-01-03T23:52:33.533Z,101378.09
2023-01-03T23:55:08.531Z,101373.42
2023-01-03T23:57:41.545Z,101368.27
